sensor_id;sensor_type;location;lat;lon;timestamp;P1;durP1;ratioP1;P2;durP2;ratioP2
61704;SDS011;47627;48.078;11.522;2023-02-28T00:00:30;7.40;;;5.00;;
61704;SDS011;47627;48.078;11.522;2023-02-28T00:02:55;5.35;;;4.57;;
61704;SDS011;47627;48.078;11.522;2023-02-28T00:05:21;7.93;;;5.03;;
61704;SDS011;47627;48.078;11.522;2023-02-28T00:07:47;6.70;;;5.07;;
61704;SDS011;47627;48.078;11.522;2023-02-28T00:10:14;7.00;;;5.05;;
61704;SDS011;47627;48.078;11.522;2023-02-28T00:12:39;7.65;;;4.93;;
61704;SDS011;47627;48.078;11.522;2023-02-28T00:15:05;9.35;;;5.18;;
61704;SDS011;47627;48.078;11.522;2023-02-28T00:17:30;7.03;;;5.25;;
61704;SDS011;47627;48.078;11.522;2023-02-28T00:19:56;7.13;;;4.70;;
61704;SDS011;47627;48.078;11.522;2023-02-28T00:22:21;7.50;;;5.20;;
61704;SDS011;47627;48.078;11.522;2023-02-28T00:24:47;6.60;;;5.10;;
61704;SDS011;47627;48.078;11.522;2023-02-28T00:27:12;7.00;;;5.65;;
61704;SDS011;47627;48.078;11.522;2023-02-28T00:29:38;6.63;;;5.22;;
61704;SDS011;47627;48.078;11.522;2023-02-28T00:32:04;6.93;;;5.40;;
61704;SDS011;47627;48.078;11.522;2023-02-28T00:34:29;6.70;;;5.30;;
61704;SDS011;47627;48.078;11.522;2023-02-28T00:36:54;7.30;;;5.20;;
61704;SDS011;47627;48.078;11.522;2023-02-28T00:39:20;8.13;;;5.38;;
61704;SDS011;47627;48.078;11.522;2023-02-28T00:41:45;7.43;;;5.10;;
61704;SDS011;47627;48.078;11.522;2023-02-28T00:44:10;8.43;;;5.50;;
61704;SDS011;47627;48.078;11.522;2023-02-28T00:46:35;12.10;;;6.25;;
61704;SDS011;47627;48.078;11.522;2023-02-28T00:49:01;8.57;;;6.10;;
61704;SDS011;47627;48.078;11.522;2023-02-28T00:51:26;10.43;;;5.93;;
61704;SDS011;47627;48.078;11.522;2023-02-28T00:53:51;8.75;;;5.95;;
61704;SDS011;47627;48.078;11.522;2023-02-28T00:56:16;7.72;;;5.45;;
61704;SDS011;47627;48.078;11.522;2023-02-28T00:58:42;8.30;;;5.57;;
61704;SDS011;47627;48.078;11.522;2023-02-28T01:01:07;6.57;;;5.28;;
61704;SDS011;47627;48.078;11.522;2023-02-28T01:03:32;6.97;;;5.38;;
61704;SDS011;47627;48.078;11.522;2023-02-28T01:05:58;8.27;;;5.93;;
61704;SDS011;47627;48.078;11.522;2023-02-28T01:08:23;6.97;;;5.35;;
61704;SDS011;47627;48.078;11.522;2023-02-28T01:10:49;8.60;;;5.88;;
61704;SDS011;47627;48.078;11.522;2023-02-28T01:13:15;6.97;;;5.43;;
61704;SDS011;47627;48.078;11.522;2023-02-28T01:15:41;8.20;;;5.75;;
61704;SDS011;47627;48.078;11.522;2023-02-28T01:18:07;8.95;;;6.10;;
61704;SDS011;47627;48.078;11.522;2023-02-28T01:20:32;7.55;;;5.88;;
61704;SDS011;47627;48.078;11.522;2023-02-28T01:22:57;9.65;;;5.75;;
61704;SDS011;47627;48.078;11.522;2023-02-28T01:25:23;8.32;;;5.15;;
61704;SDS011;47627;48.078;11.522;2023-02-28T01:27:48;8.18;;;6.22;;
61704;SDS011;47627;48.078;11.522;2023-02-28T01:30:13;8.35;;;6.05;;
61704;SDS011;47627;48.078;11.522;2023-02-28T01:32:39;9.35;;;6.10;;
61704;SDS011;47627;48.078;11.522;2023-02-28T01:35:04;9.00;;;5.85;;
61704;SDS011;47627;48.078;11.522;2023-02-28T01:37:30;9.75;;;6.38;;
61704;SDS011;47627;48.078;11.522;2023-02-28T01:39:56;8.85;;;6.05;;
61704;SDS011;47627;48.078;11.522;2023-02-28T01:42:21;7.20;;;5.57;;
61704;SDS011;47627;48.078;11.522;2023-02-28T01:44:57;9.00;;;6.25;;
61704;SDS011;47627;48.078;11.522;2023-02-28T01:47:31;7.95;;;5.97;;
61704;SDS011;47627;48.078;11.522;2023-02-28T01:49:57;8.38;;;5.55;;
61704;SDS011;47627;48.078;11.522;2023-02-28T01:52:22;10.27;;;6.07;;
61704;SDS011;47627;48.078;11.522;2023-02-28T01:54:53;9.38;;;6.70;;
61704;SDS011;47627;48.078;11.522;2023-02-28T01:57:21;8.45;;;5.75;;
61704;SDS011;47627;48.078;11.522;2023-02-28T01:59:52;12.10;;;6.70;;
61704;SDS011;47627;48.078;11.522;2023-02-28T02:02:18;11.55;;;6.85;;
61704;SDS011;47627;48.078;11.522;2023-02-28T02:04:53;7.28;;;5.97;;
61704;SDS011;47627;48.078;11.522;2023-02-28T02:07:38;7.30;;;5.93;;
61704;SDS011;47627;48.078;11.522;2023-02-28T02:10:10;7.30;;;6.38;;
61704;SDS011;47627;48.078;11.522;2023-02-28T02:15:24;15.00;;;6.57;;
61704;SDS011;47627;48.078;11.522;2023-02-28T02:17:52;7.90;;;6.18;;
61704;SDS011;47627;48.078;11.522;2023-02-28T02:33:24;9.40;;;7.50;;
61704;SDS011;47627;48.078;11.522;2023-02-28T02:35:52;10.50;;;6.63;;
61704;SDS011;47627;48.078;11.522;2023-02-28T02:38:32;11.77;;;6.82;;
61704;SDS011;47627;48.078;11.522;2023-02-28T02:43:34;9.32;;;7.05;;
61704;SDS011;47627;48.078;11.522;2023-02-28T02:46:02;9.60;;;6.78;;
61704;SDS011;47627;48.078;11.522;2023-02-28T02:48:30;9.10;;;7.25;;
61704;SDS011;47627;48.078;11.522;2023-02-28T02:50:58;9.45;;;6.43;;
61704;SDS011;47627;48.078;11.522;2023-02-28T02:53:29;11.48;;;7.13;;
61704;SDS011;47627;48.078;11.522;2023-02-28T02:55:56;8.75;;;6.53;;
61704;SDS011;47627;48.078;11.522;2023-02-28T02:58:29;7.85;;;6.57;;
61704;SDS011;47627;48.078;11.522;2023-02-28T03:00:58;8.93;;;6.50;;
61704;SDS011;47627;48.078;11.522;2023-02-28T03:03:24;8.98;;;6.68;;
61704;SDS011;47627;48.078;11.522;2023-02-28T03:05:57;11.93;;;7.38;;
61704;SDS011;47627;48.078;11.522;2023-02-28T03:08:23;10.15;;;7.15;;
61704;SDS011;47627;48.078;11.522;2023-02-28T03:10:49;11.25;;;7.03;;
61704;SDS011;47627;48.078;11.522;2023-02-28T03:13:19;10.50;;;7.68;;
61704;SDS011;47627;48.078;11.522;2023-02-28T03:15:57;9.48;;;7.18;;
61704;SDS011;47627;48.078;11.522;2023-02-28T03:18:32;10.57;;;7.13;;
61704;SDS011;47627;48.078;11.522;2023-02-28T03:21:06;8.95;;;6.93;;
61704;SDS011;47627;48.078;11.522;2023-02-28T03:23:47;10.77;;;7.85;;
61704;SDS011;47627;48.078;11.522;2023-02-28T03:26:19;10.55;;;7.57;;
61704;SDS011;47627;48.078;11.522;2023-02-28T03:28:52;13.50;;;7.85;;
61704;SDS011;47627;48.078;11.522;2023-02-28T03:33:51;11.98;;;8.32;;
61704;SDS011;47627;48.078;11.522;2023-02-28T03:36:21;10.90;;;7.90;;
61704;SDS011;47627;48.078;11.522;2023-02-28T03:38:51;12.38;;;8.02;;
61704;SDS011;47627;48.078;11.522;2023-02-28T03:41:20;10.90;;;8.05;;
61704;SDS011;47627;48.078;11.522;2023-02-28T03:43:51;12.63;;;8.02;;
61704;SDS011;47627;48.078;11.522;2023-02-28T03:46:18;11.10;;;7.97;;
61704;SDS011;47627;48.078;11.522;2023-02-28T03:48:49;11.43;;;8.50;;
61704;SDS011;47627;48.078;11.522;2023-02-28T03:51:17;11.02;;;9.00;;
61704;SDS011;47627;48.078;11.522;2023-02-28T03:53:45;10.48;;;8.25;;
61704;SDS011;47627;48.078;11.522;2023-02-28T03:56:22;11.52;;;8.50;;
61704;SDS011;47627;48.078;11.522;2023-02-28T03:58:53;14.13;;;9.13;;
61704;SDS011;47627;48.078;11.522;2023-02-28T04:01:24;18.95;;;9.32;;
61704;SDS011;47627;48.078;11.522;2023-02-28T04:03:50;12.10;;;8.63;;
61704;SDS011;47627;48.078;11.522;2023-02-28T04:06:17;16.38;;;10.10;;
61704;SDS011;47627;48.078;11.522;2023-02-28T04:08:42;13.98;;;9.23;;
61704;SDS011;47627;48.078;11.522;2023-02-28T04:11:42;14.70;;;9.18;;
61704;SDS011;47627;48.078;11.522;2023-02-28T04:14:00;14.60;;;9.18;;
61704;SDS011;47627;48.078;11.522;2023-02-28T04:16:27;15.30;;;9.00;;
61704;SDS011;47627;48.078;11.522;2023-02-28T04:18:52;18.75;;;9.88;;
61704;SDS011;47627;48.078;11.522;2023-02-28T04:21:18;12.90;;;9.80;;
61704;SDS011;47627;48.078;11.522;2023-02-28T04:23:45;13.15;;;9.50;;
61704;SDS011;47627;48.078;11.522;2023-02-28T04:26:11;13.60;;;9.35;;
61704;SDS011;47627;48.078;11.522;2023-02-28T04:28:36;14.95;;;10.43;;
61704;SDS011;47627;48.078;11.522;2023-02-28T04:31:03;14.32;;;9.98;;
61704;SDS011;47627;48.078;11.522;2023-02-28T04:33:29;12.13;;;9.38;;
61704;SDS011;47627;48.078;11.522;2023-02-28T04:35:59;13.13;;;9.70;;
61704;SDS011;47627;48.078;11.522;2023-02-28T04:38:24;16.85;;;10.55;;
61704;SDS011;47627;48.078;11.522;2023-02-28T04:40:49;14.93;;;10.50;;
61704;SDS011;47627;48.078;11.522;2023-02-28T04:43:15;13.55;;;9.90;;
61704;SDS011;47627;48.078;11.522;2023-02-28T04:45:40;14.20;;;10.13;;
61704;SDS011;47627;48.078;11.522;2023-02-28T04:48:05;15.77;;;11.35;;
61704;SDS011;47627;48.078;11.522;2023-02-28T04:50:30;18.27;;;11.50;;
61704;SDS011;47627;48.078;11.522;2023-02-28T04:52:56;14.63;;;10.43;;
61704;SDS011;47627;48.078;11.522;2023-02-28T04:55:21;19.95;;;12.02;;
61704;SDS011;47627;48.078;11.522;2023-02-28T04:57:46;16.67;;;11.38;;
61704;SDS011;47627;48.078;11.522;2023-02-28T05:00:12;14.38;;;10.55;;
61704;SDS011;47627;48.078;11.522;2023-02-28T05:02:40;15.55;;;11.57;;
61704;SDS011;47627;48.078;11.522;2023-02-28T05:05:05;19.17;;;11.75;;
61704;SDS011;47627;48.078;11.522;2023-02-28T05:07:30;19.02;;;11.68;;
61704;SDS011;47627;48.078;11.522;2023-02-28T05:09:56;16.58;;;11.95;;
61704;SDS011;47627;48.078;11.522;2023-02-28T05:12:21;20.02;;;13.13;;
61704;SDS011;47627;48.078;11.522;2023-02-28T05:14:46;19.30;;;12.52;;
61704;SDS011;47627;48.078;11.522;2023-02-28T05:17:11;19.25;;;12.93;;
61704;SDS011;47627;48.078;11.522;2023-02-28T05:19:37;17.73;;;12.98;;
61704;SDS011;47627;48.078;11.522;2023-02-28T05:22:02;18.17;;;12.90;;
61704;SDS011;47627;48.078;11.522;2023-02-28T05:24:27;18.20;;;13.02;;
61704;SDS011;47627;48.078;11.522;2023-02-28T05:26:53;21.50;;;14.35;;
61704;SDS011;47627;48.078;11.522;2023-02-28T05:29:19;18.65;;;12.63;;
61704;SDS011;47627;48.078;11.522;2023-02-28T05:31:44;21.95;;;14.68;;
61704;SDS011;47627;48.078;11.522;2023-02-28T05:34:09;21.17;;;14.38;;
61704;SDS011;47627;48.078;11.522;2023-02-28T05:36:37;20.40;;;14.88;;
61704;SDS011;47627;48.078;11.522;2023-02-28T05:39:02;22.85;;;15.45;;
61704;SDS011;47627;48.078;11.522;2023-02-28T05:41:28;21.92;;;15.23;;
61704;SDS011;47627;48.078;11.522;2023-02-28T05:43:53;21.75;;;14.93;;
61704;SDS011;47627;48.078;11.522;2023-02-28T05:46:18;24.27;;;15.50;;
61704;SDS011;47627;48.078;11.522;2023-02-28T05:48:45;21.10;;;15.27;;
61704;SDS011;47627;48.078;11.522;2023-02-28T05:51:11;26.80;;;16.00;;
61704;SDS011;47627;48.078;11.522;2023-02-28T05:53:36;25.25;;;17.05;;
61704;SDS011;47627;48.078;11.522;2023-02-28T05:56:02;27.70;;;18.05;;
61704;SDS011;47627;48.078;11.522;2023-02-28T05:58:27;26.00;;;17.75;;
61704;SDS011;47627;48.078;11.522;2023-02-28T06:00:59;24.70;;;17.33;;
61704;SDS011;47627;48.078;11.522;2023-02-28T06:03:25;28.15;;;18.20;;
61704;SDS011;47627;48.078;11.522;2023-02-28T06:05:50;23.90;;;17.08;;
61704;SDS011;47627;48.078;11.522;2023-02-28T06:08:15;25.85;;;17.30;;
61704;SDS011;47627;48.078;11.522;2023-02-28T06:10:41;28.52;;;18.30;;
61704;SDS011;47627;48.078;11.522;2023-02-28T06:13:06;27.55;;;17.98;;
61704;SDS011;47627;48.078;11.522;2023-02-28T06:15:31;24.60;;;17.73;;
61704;SDS011;47627;48.078;11.522;2023-02-28T06:17:56;25.52;;;17.42;;
61704;SDS011;47627;48.078;11.522;2023-02-28T06:20:22;26.10;;;17.73;;
61704;SDS011;47627;48.078;11.522;2023-02-28T06:22:48;27.58;;;19.85;;
61704;SDS011;47627;48.078;11.522;2023-02-28T06:25:15;27.92;;;18.38;;
61704;SDS011;47627;48.078;11.522;2023-02-28T06:27:40;28.88;;;19.42;;
61704;SDS011;47627;48.078;11.522;2023-02-28T06:30:06;28.50;;;19.50;;
61704;SDS011;47627;48.078;11.522;2023-02-28T06:32:31;30.85;;;20.92;;
61704;SDS011;47627;48.078;11.522;2023-02-28T06:34:57;29.88;;;19.20;;
61704;SDS011;47627;48.078;11.522;2023-02-28T06:37:23;28.27;;;20.17;;
61704;SDS011;47627;48.078;11.522;2023-02-28T06:39:51;32.42;;;20.15;;
61704;SDS011;47627;48.078;11.522;2023-02-28T06:42:16;31.35;;;21.70;;
61704;SDS011;47627;48.078;11.522;2023-02-28T06:44:41;30.42;;;21.02;;
61704;SDS011;47627;48.078;11.522;2023-02-28T06:47:08;30.27;;;20.10;;
61704;SDS011;47627;48.078;11.522;2023-02-28T06:49:33;30.00;;;20.70;;
61704;SDS011;47627;48.078;11.522;2023-02-28T06:51:59;29.38;;;20.35;;
61704;SDS011;47627;48.078;11.522;2023-02-28T06:54:24;30.63;;;20.50;;
61704;SDS011;47627;48.078;11.522;2023-02-28T06:56:49;30.85;;;19.83;;
61704;SDS011;47627;48.078;11.522;2023-02-28T06:59:15;27.50;;;19.25;;
61704;SDS011;47627;48.078;11.522;2023-02-28T07:01:40;29.83;;;20.38;;
61704;SDS011;47627;48.078;11.522;2023-02-28T07:04:05;28.98;;;20.85;;
61704;SDS011;47627;48.078;11.522;2023-02-28T07:06:33;29.35;;;20.75;;
61704;SDS011;47627;48.078;11.522;2023-02-28T07:09:01;30.30;;;21.10;;
61704;SDS011;47627;48.078;11.522;2023-02-28T07:11:27;28.13;;;20.92;;
61704;SDS011;47627;48.078;11.522;2023-02-28T07:13:55;27.90;;;20.58;;
61704;SDS011;47627;48.078;11.522;2023-02-28T07:16:21;29.35;;;21.88;;
61704;SDS011;47627;48.078;11.522;2023-02-28T07:18:47;31.92;;;22.15;;
61704;SDS011;47627;48.078;11.522;2023-02-28T07:21:12;29.55;;;20.63;;
61704;SDS011;47627;48.078;11.522;2023-02-28T07:23:39;30.52;;;21.35;;
61704;SDS011;47627;48.078;11.522;2023-02-28T07:26:17;32.97;;;21.88;;
61704;SDS011;47627;48.078;11.522;2023-02-28T07:28:43;33.38;;;21.27;;
61704;SDS011;47627;48.078;11.522;2023-02-28T07:31:09;28.85;;;21.02;;
61704;SDS011;47627;48.078;11.522;2023-02-28T07:33:35;28.00;;;19.20;;
61704;SDS011;47627;48.078;11.522;2023-02-28T07:36:04;30.50;;;21.52;;
61704;SDS011;47627;48.078;11.522;2023-02-28T07:38:31;29.42;;;21.77;;
61704;SDS011;47627;48.078;11.522;2023-02-28T07:40:58;30.25;;;21.35;;
61704;SDS011;47627;48.078;11.522;2023-02-28T07:43:24;33.75;;;22.95;;
61704;SDS011;47627;48.078;11.522;2023-02-28T07:45:49;31.77;;;21.95;;
61704;SDS011;47627;48.078;11.522;2023-02-28T07:48:14;34.22;;;22.60;;
61704;SDS011;47627;48.078;11.522;2023-02-28T07:50:40;32.45;;;22.67;;
61704;SDS011;47627;48.078;11.522;2023-02-28T07:53:05;30.25;;;21.85;;
61704;SDS011;47627;48.078;11.522;2023-02-28T07:55:30;31.65;;;22.52;;
61704;SDS011;47627;48.078;11.522;2023-02-28T08:00:30;31.27;;;21.20;;
61704;SDS011;47627;48.078;11.522;2023-02-28T08:02:57;31.70;;;22.67;;
61704;SDS011;47627;48.078;11.522;2023-02-28T08:05:23;31.25;;;22.17;;
61704;SDS011;47627;48.078;11.522;2023-02-28T08:34:34;31.58;;;21.80;;
61704;SDS011;47627;48.078;11.522;2023-02-28T09:05:35;30.40;;;21.40;;
61704;SDS011;47627;48.078;11.522;2023-02-28T09:13:44;29.83;;;21.95;;
61704;SDS011;47627;48.078;11.522;2023-02-28T09:48:31;28.92;;;20.52;;
61704;SDS011;47627;48.078;11.522;2023-02-28T10:07:14;28.23;;;20.70;;
61704;SDS011;47627;48.078;11.522;2023-02-28T10:09:43;30.52;;;21.27;;
61704;SDS011;47627;48.078;11.522;2023-02-28T10:12:11;29.48;;;22.63;;
61704;SDS011;47627;48.078;11.522;2023-02-28T10:14:37;31.88;;;22.52;;
61704;SDS011;47627;48.078;11.522;2023-02-28T10:17:08;30.52;;;21.95;;
61704;SDS011;47627;48.078;11.522;2023-02-28T10:19:39;31.45;;;21.00;;
61704;SDS011;47627;48.078;11.522;2023-02-28T10:22:11;29.40;;;21.50;;
61704;SDS011;47627;48.078;11.522;2023-02-28T10:24:41;27.90;;;21.02;;
61704;SDS011;47627;48.078;11.522;2023-02-28T10:27:12;30.63;;;21.73;;
61704;SDS011;47627;48.078;11.522;2023-02-28T10:29:39;32.35;;;22.83;;
61704;SDS011;47627;48.078;11.522;2023-02-28T10:32:05;32.00;;;21.23;;
61704;SDS011;47627;48.078;11.522;2023-02-28T10:34:31;26.77;;;21.80;;
61704;SDS011;47627;48.078;11.522;2023-02-28T10:36:56;29.42;;;21.20;;
61704;SDS011;47627;48.078;11.522;2023-02-28T10:39:36;32.25;;;21.27;;
61704;SDS011;47627;48.078;11.522;2023-02-28T10:42:02;36.15;;;22.98;;
61704;SDS011;47627;48.078;11.522;2023-02-28T10:44:28;31.75;;;21.48;;
61704;SDS011;47627;48.078;11.522;2023-02-28T10:46:56;30.40;;;21.63;;
61704;SDS011;47627;48.078;11.522;2023-02-28T10:49:28;35.10;;;20.83;;
61704;SDS011;47627;48.078;11.522;2023-02-28T10:51:57;29.48;;;21.48;;
61704;SDS011;47627;48.078;11.522;2023-02-28T10:54:29;26.42;;;20.25;;
61704;SDS011;47627;48.078;11.522;2023-02-28T10:59:52;28.88;;;20.00;;
61704;SDS011;47627;48.078;11.522;2023-02-28T11:02:39;29.27;;;21.05;;
61704;SDS011;47627;48.078;11.522;2023-02-28T11:10:34;28.88;;;21.15;;
61704;SDS011;47627;48.078;11.522;2023-02-28T11:13:05;29.05;;;21.30;;
61704;SDS011;47627;48.078;11.522;2023-02-28T11:15:33;25.85;;;19.50;;
61704;SDS011;47627;48.078;11.522;2023-02-28T11:18:36;27.52;;;20.58;;
61704;SDS011;47627;48.078;11.522;2023-02-28T11:20:54;27.42;;;20.02;;
61704;SDS011;47627;48.078;11.522;2023-02-28T11:23:20;28.40;;;19.98;;
61704;SDS011;47627;48.078;11.522;2023-02-28T11:25:50;29.02;;;20.63;;
61704;SDS011;47627;48.078;11.522;2023-02-28T11:31:03;30.38;;;20.90;;
61704;SDS011;47627;48.078;11.522;2023-02-28T11:33:30;27.35;;;19.98;;
61704;SDS011;47627;48.078;11.522;2023-02-28T11:36:01;26.13;;;19.55;;
61704;SDS011;47627;48.078;11.522;2023-02-28T11:38:27;27.92;;;19.77;;
61704;SDS011;47627;48.078;11.522;2023-02-28T11:43:24;27.63;;;20.50;;
61704;SDS011;47627;48.078;11.522;2023-02-28T11:53:39;27.90;;;20.63;;
61704;SDS011;47627;48.078;11.522;2023-02-28T11:56:10;25.77;;;19.98;;
61704;SDS011;47627;48.078;11.522;2023-02-28T12:06:31;28.25;;;20.80;;
61704;SDS011;47627;48.078;11.522;2023-02-28T12:09:35;24.73;;;19.15;;
61704;SDS011;47627;48.078;11.522;2023-02-28T12:12:15;25.83;;;20.08;;
61704;SDS011;47627;48.078;11.522;2023-02-28T12:25:21;27.23;;;20.15;;
61704;SDS011;47627;48.078;11.522;2023-02-28T12:27:47;26.83;;;18.85;;
61704;SDS011;47627;48.078;11.522;2023-02-28T12:30:20;24.15;;;19.77;;
61704;SDS011;47627;48.078;11.522;2023-02-28T12:32:53;26.88;;;19.27;;
61704;SDS011;47627;48.078;11.522;2023-02-28T12:35:33;27.00;;;19.88;;
61704;SDS011;47627;48.078;11.522;2023-02-28T12:40:45;22.80;;;18.77;;
61704;SDS011;47627;48.078;11.522;2023-02-28T12:43:12;26.88;;;20.23;;
61704;SDS011;47627;48.078;11.522;2023-02-28T12:45:43;26.42;;;18.52;;
61704;SDS011;47627;48.078;11.522;2023-02-28T12:48:11;26.80;;;18.58;;
61704;SDS011;47627;48.078;11.522;2023-02-28T12:50:39;25.08;;;18.40;;
61704;SDS011;47627;48.078;11.522;2023-02-28T12:53:25;25.05;;;18.20;;
61704;SDS011;47627;48.078;11.522;2023-02-28T12:55:59;23.70;;;17.98;;
61704;SDS011;47627;48.078;11.522;2023-02-28T12:58:38;25.20;;;17.90;;
61704;SDS011;47627;48.078;11.522;2023-02-28T13:03:49;24.27;;;18.77;;
61704;SDS011;47627;48.078;11.522;2023-02-28T13:06:23;23.35;;;17.35;;
61704;SDS011;47627;48.078;11.522;2023-02-28T13:08:59;25.90;;;18.15;;
61704;SDS011;47627;48.078;11.522;2023-02-28T13:11:33;22.55;;;18.83;;
61704;SDS011;47627;48.078;11.522;2023-02-28T13:14:04;24.90;;;17.88;;
61704;SDS011;47627;48.078;11.522;2023-02-28T13:16:47;25.20;;;18.75;;
61704;SDS011;47627;48.078;11.522;2023-02-28T13:19:16;20.92;;;17.58;;
61704;SDS011;47627;48.078;11.522;2023-02-28T13:22:00;24.55;;;18.83;;
61704;SDS011;47627;48.078;11.522;2023-02-28T13:24:36;21.13;;;17.80;;
61704;SDS011;47627;48.078;11.522;2023-02-28T13:29:37;21.23;;;15.95;;
61704;SDS011;47627;48.078;11.522;2023-02-28T13:34:31;23.33;;;17.02;;
61704;SDS011;47627;48.078;11.522;2023-02-28T13:47:21;23.65;;;18.40;;
61704;SDS011;47627;48.078;11.522;2023-02-28T13:49:47;26.08;;;19.77;;
61704;SDS011;47627;48.078;11.522;2023-02-28T13:52:15;23.40;;;18.98;;
61704;SDS011;47627;48.078;11.522;2023-02-28T14:00:07;22.77;;;18.58;;
61704;SDS011;47627;48.078;11.522;2023-02-28T14:05:17;26.17;;;19.75;;
61704;SDS011;47627;48.078;11.522;2023-02-28T14:07:45;22.38;;;19.25;;
61704;SDS011;47627;48.078;11.522;2023-02-28T14:15:38;23.90;;;17.52;;
61704;SDS011;47627;48.078;11.522;2023-02-28T14:18:05;22.10;;;18.15;;
61704;SDS011;47627;48.078;11.522;2023-02-28T14:20:35;25.65;;;18.48;;
61704;SDS011;47627;48.078;11.522;2023-02-28T14:28:47;29.27;;;18.70;;
61704;SDS011;47627;48.078;11.522;2023-02-28T14:31:15;23.40;;;18.35;;
61704;SDS011;47627;48.078;11.522;2023-02-28T14:36:32;21.55;;;18.33;;
61704;SDS011;47627;48.078;11.522;2023-02-28T14:38:59;21.65;;;18.40;;
61704;SDS011;47627;48.078;11.522;2023-02-28T14:41:33;23.85;;;18.35;;
61704;SDS011;47627;48.078;11.522;2023-02-28T14:44:13;23.42;;;18.35;;
61704;SDS011;47627;48.078;11.522;2023-02-28T14:46:39;21.20;;;17.27;;
61704;SDS011;47627;48.078;11.522;2023-02-28T14:49:05;24.85;;;17.70;;
61704;SDS011;47627;48.078;11.522;2023-02-28T14:51:32;22.27;;;17.80;;
61704;SDS011;47627;48.078;11.522;2023-02-28T14:53:59;20.98;;;17.08;;
61704;SDS011;47627;48.078;11.522;2023-02-28T14:56:29;20.92;;;17.38;;
61704;SDS011;47627;48.078;11.522;2023-02-28T14:58:56;19.88;;;16.38;;
61704;SDS011;47627;48.078;11.522;2023-02-28T15:01:24;22.77;;;17.00;;
61704;SDS011;47627;48.078;11.522;2023-02-28T15:03:57;19.00;;;15.98;;
61704;SDS011;47627;48.078;11.522;2023-02-28T15:06:24;21.13;;;15.25;;
61704;SDS011;47627;48.078;11.522;2023-02-28T15:11:50;20.02;;;14.98;;
61704;SDS011;47627;48.078;11.522;2023-02-28T15:14:19;19.73;;;15.48;;
61704;SDS011;47627;48.078;11.522;2023-02-28T15:16:46;20.38;;;15.73;;
61704;SDS011;47627;48.078;11.522;2023-02-28T15:21:43;20.50;;;16.55;;
61704;SDS011;47627;48.078;11.522;2023-02-28T15:24:14;19.52;;;16.00;;
61704;SDS011;47627;48.078;11.522;2023-02-28T15:26:44;22.48;;;16.73;;
61704;SDS011;47627;48.078;11.522;2023-02-28T15:29:15;19.80;;;15.68;;
61704;SDS011;47627;48.078;11.522;2023-02-28T15:31:45;22.17;;;17.23;;
61704;SDS011;47627;48.078;11.522;2023-02-28T15:34:27;20.45;;;16.60;;
61704;SDS011;47627;48.078;11.522;2023-02-28T15:36:57;24.40;;;17.77;;
61704;SDS011;47627;48.078;11.522;2023-02-28T15:39:24;20.80;;;16.90;;
61704;SDS011;47627;48.078;11.522;2023-02-28T15:41:49;21.13;;;16.65;;
61704;SDS011;47627;48.078;11.522;2023-02-28T15:49:39;21.15;;;17.63;;
61704;SDS011;47627;48.078;11.522;2023-02-28T15:52:09;23.67;;;18.17;;
61704;SDS011;47627;48.078;11.522;2023-02-28T15:54:37;21.40;;;17.58;;
61704;SDS011;47627;48.078;11.522;2023-02-28T15:57:06;21.45;;;16.77;;
61704;SDS011;47627;48.078;11.522;2023-02-28T15:59:35;22.80;;;18.77;;
61704;SDS011;47627;48.078;11.522;2023-02-28T16:04:34;24.42;;;17.83;;
61704;SDS011;47627;48.078;11.522;2023-02-28T16:07:01;23.33;;;17.73;;
61704;SDS011;47627;48.078;11.522;2023-02-28T16:09:26;24.73;;;18.23;;
61704;SDS011;47627;48.078;11.522;2023-02-28T16:11:53;24.05;;;17.48;;
61704;SDS011;47627;48.078;11.522;2023-02-28T16:14:20;23.27;;;17.35;;
61704;SDS011;47627;48.078;11.522;2023-02-28T16:16:52;26.13;;;17.27;;
61704;SDS011;47627;48.078;11.522;2023-02-28T16:19:18;21.75;;;17.85;;
61704;SDS011;47627;48.078;11.522;2023-02-28T16:21:43;24.67;;;18.30;;
61704;SDS011;47627;48.078;11.522;2023-02-28T16:24:09;21.63;;;16.73;;
61704;SDS011;47627;48.078;11.522;2023-02-28T16:26:34;24.15;;;16.95;;
61704;SDS011;47627;48.078;11.522;2023-02-28T16:29:02;24.35;;;18.60;;
61704;SDS011;47627;48.078;11.522;2023-02-28T16:31:28;22.67;;;17.17;;
61704;SDS011;47627;48.078;11.522;2023-02-28T16:33:56;25.42;;;18.45;;
61704;SDS011;47627;48.078;11.522;2023-02-28T16:36:22;22.17;;;17.65;;
61704;SDS011;47627;48.078;11.522;2023-02-28T16:38:50;23.77;;;17.30;;
61704;SDS011;47627;48.078;11.522;2023-02-28T16:41:19;22.25;;;17.20;;
61704;SDS011;47627;48.078;11.522;2023-02-28T16:43:46;25.30;;;17.73;;
61704;SDS011;47627;48.078;11.522;2023-02-28T16:46:12;22.55;;;17.55;;
61704;SDS011;47627;48.078;11.522;2023-02-28T16:48:38;26.20;;;17.52;;
61704;SDS011;47627;48.078;11.522;2023-02-28T16:51:04;23.45;;;17.88;;
61704;SDS011;47627;48.078;11.522;2023-02-28T16:53:30;23.42;;;17.27;;
61704;SDS011;47627;48.078;11.522;2023-02-28T16:55:55;26.15;;;18.77;;
61704;SDS011;47627;48.078;11.522;2023-02-28T16:58:20;31.80;;;23.15;;
61704;SDS011;47627;48.078;11.522;2023-02-28T17:00:46;32.00;;;22.92;;
61704;SDS011;47627;48.078;11.522;2023-02-28T17:03:19;35.83;;;24.25;;
61704;SDS011;47627;48.078;11.522;2023-02-28T17:05:45;44.28;;;29.25;;
61704;SDS011;47627;48.078;11.522;2023-02-28T17:08:11;49.22;;;30.98;;
61704;SDS011;47627;48.078;11.522;2023-02-28T17:10:36;61.55;;;37.45;;
61704;SDS011;47627;48.078;11.522;2023-02-28T17:13:01;61.13;;;35.95;;
61704;SDS011;47627;48.078;11.522;2023-02-28T17:15:26;54.65;;;35.53;;
61704;SDS011;47627;48.078;11.522;2023-02-28T17:17:52;49.75;;;33.63;;
61704;SDS011;47627;48.078;11.522;2023-02-28T17:20:21;50.53;;;31.20;;
61704;SDS011;47627;48.078;11.522;2023-02-28T17:22:47;64.15;;;37.20;;
61704;SDS011;47627;48.078;11.522;2023-02-28T17:25:13;61.53;;;36.03;;
61704;SDS011;47627;48.078;11.522;2023-02-28T17:27:38;40.00;;;27.23;;
61704;SDS011;47627;48.078;11.522;2023-02-28T17:30:25;38.13;;;27.73;;
61704;SDS011;47627;48.078;11.522;2023-02-28T17:32:49;35.55;;;27.35;;
61704;SDS011;47627;48.078;11.522;2023-02-28T17:35:15;40.08;;;27.88;;
61704;SDS011;47627;48.078;11.522;2023-02-28T17:37:40;34.90;;;25.38;;
61704;SDS011;47627;48.078;11.522;2023-02-28T17:43:02;39.45;;;26.10;;
61704;SDS011;47627;48.078;11.522;2023-02-28T17:48:55;39.33;;;25.75;;
61704;SDS011;47627;48.078;11.522;2023-02-28T17:51:21;34.22;;;25.90;;
61704;SDS011;47627;48.078;11.522;2023-02-28T17:53:47;40.67;;;28.20;;
61704;SDS011;47627;48.078;11.522;2023-02-28T17:56:13;42.90;;;27.73;;
61704;SDS011;47627;48.078;11.522;2023-02-28T17:58:40;38.65;;;26.55;;
61704;SDS011;47627;48.078;11.522;2023-02-28T18:01:05;43.08;;;29.42;;
61704;SDS011;47627;48.078;11.522;2023-02-28T18:03:30;40.40;;;29.23;;
61704;SDS011;47627;48.078;11.522;2023-02-28T18:05:57;43.45;;;31.25;;
61704;SDS011;47627;48.078;11.522;2023-02-28T18:08:22;35.67;;;27.77;;
61704;SDS011;47627;48.078;11.522;2023-02-28T18:10:47;38.88;;;30.63;;
61704;SDS011;47627;48.078;11.522;2023-02-28T18:13:12;45.42;;;32.03;;
61704;SDS011;47627;48.078;11.522;2023-02-28T18:15:38;36.65;;;28.85;;